Time;durP1;ratioP1;P1;durP2;ratioP2;P2;SDS_P1;SDS_P2;PMS_P1;PMS_P2;Temp;Humidity;BMP_temperature;BMP_pressure;BME280_temperature;BME280_humidity;BME280_pressure;Samples;Min_cycle;Max_cycle;Signal;HPM_P1;HPM_P2
2021/09/16 00:02:05;;;;;;;;;7.25;6.00;;;;;24.55;49.84;101150.38;5077323;28;45417;-51
2021/09/16 00:04:30;;;;;;;;;8.00;8.00;;;;;24.55;49.94;101148.59;5077765;28;45529;-51
2021/09/16 00:06:56;;;;;;;;;7.75;7.75;;;;;24.55;49.90;101145.94;5077205;28;45317;-48
2021/09/16 00:09:21;;;;;;;;;5.75;5.75;;;;;24.56;50.07;101149.44;5077271;28;45635;-52
2021/09/16 00:11:47;;;;;;;;;9.00;7.00;;;;;24.55;50.34;101147.72;5077414;28;45752;-52
2021/09/16 00:14:12;;;;;;;;;8.25;7.00;;;;;24.53;49.70;101144.31;5077417;28;45316;-48
2021/09/16 00:16:38;;;;;;;;;9.00;9.00;;;;;24.55;49.91;101153.91;5077143;28;46214;-51
2021/09/16 00:19:03;;;;;;;;;8.25;8.25;;;;;24.53;49.72;101145.19;5077021;28;45298;-50
2021/09/16 00:21:28;;;;;;;;;8.25;6.00;;;;;24.53;49.74;101141.69;5077542;28;45352;-50
2021/09/16 00:23:54;;;;;;;;;6.00;6.00;;;;;24.53;49.70;101153.16;5077400;28;45241;-48
2021/09/16 00:26:19;;;;;;;;;7.50;7.50;;;;;24.53;49.48;101142.53;5076888;28;46458;-46
2021/09/16 00:28:44;;;;;;;;;8.25;7.25;;;;;24.53;50.12;101139.03;5076865;28;45342;-48
2021/09/16 00:31:10;;;;;;;;;7.50;6.00;;;;;24.53;49.61;101139.03;5077015;28;45367;-56
2021/09/16 00:33:35;;;;;;;;;8.50;8.50;;;;;24.52;49.87;101137.34;5077088;28;45319;-51
2021/09/16 00:36:01;;;;;;;;;9.25;8.50;;;;;24.51;49.61;101144.44;5077108;28;46502;-51
2021/09/16 00:38:26;;;;;;;;;5.75;5.75;;;;;24.51;50.14;101140.97;5076780;28;45476;-50
2021/09/16 00:40:52;;;;;;;;;6.50;6.50;;;;;24.51;49.51;101136.50;5076941;28;45415;-52
2021/09/16 00:43:17;;;;;;;;;7.00;7.00;;;;;24.51;50.00;101146.25;5092899;27;45384;-50
2021/09/16 00:45:42;;;;;;;;;7.00;7.00;;;;;24.51;49.70;101147.09;5076751;28;45480;-50
2021/09/16 00:48:08;;;;;;;;;9.00;9.00;;;;;24.51;50.04;101156.84;5076624;28;45367;-47
2021/09/16 00:50:36;;;;;;;;;9.00;7.50;;;;;24.50;49.96;101157.81;5076694;28;45311;-45
2021/09/16 00:53:01;;;;;;;;;9.00;7.25;;;;;24.50;49.64;101165.75;5077245;28;45280;-54
2021/09/16 00:55:27;;;;;;;;;6.25;6.25;;;;;24.49;49.59;101166.72;5076523;28;46326;-49
2021/09/16 00:57:55;;;;;;;;;9.50;8.75;;;;;24.49;50.02;101164.88;5076501;28;45254;-56
2021/09/16 01:00:21;;;;;;;;;8.00;8.00;;;;;24.48;50.11;101165.84;5076554;28;46314;-52
2021/09/16 01:02:47;;;;;;;;;7.00;6.00;;;;;24.49;49.57;101166.72;5076697;28;45550;-55
2021/09/16 01:05:13;;;;;;;;;6.75;6.75;;;;;24.49;49.49;101164.06;5076372;28;46646;-54
2021/09/16 01:07:39;;;;;;;;;9.75;8.00;;;;;24.49;50.31;101170.19;5076477;28;45345;-55
2021/09/16 01:10:07;;;;;;;;;7.75;7.75;;;;;24.49;49.53;101161.41;5076719;28;45308;-48
2021/09/16 01:12:33;;;;;;;;;8.50;7.00;;;;;24.48;49.33;101163.19;5078170;28;45292;-44
2021/09/16 01:14:58;;;;;;;;;6.75;6.75;;;;;24.47;49.84;101165.94;5079998;28;46419;-54
2021/09/16 01:17:24;;;;;;;;;6.25;6.00;;;;;24.48;49.40;101176.44;5080093;28;45473;-53
2021/09/16 01:19:49;;;;;;;;;6.75;6.75;;;;;24.48;49.98;101170.31;5080102;28;45257;-50
2021/09/16 01:22:22;;;;;;;;;8.00;8.00;;;;;24.47;49.64;101173.91;5080530;28;45713;-49
2021/09/16 01:24:48;;;;;;;;;8.00;8.00;;;;;24.47;49.65;101174.78;5079798;28;45848;-45
2021/09/16 01:27:14;;;;;;;;;5.50;5.50;;;;;24.47;49.70;101173.91;5079941;28;45316;-44
2021/09/16 01:29:40;;;;;;;;;6.25;6.25;;;;;24.48;50.01;101178.25;5079897;28;45458;-54
2021/09/16 01:32:07;;;;;;;;;5.50;5.50;;;;;24.47;49.98;101184.50;5080244;28;45824;-47
2021/09/16 01:34:33;;;;;;;;;6.50;6.50;;;;;24.45;49.38;101183.75;5080063;28;45405;-48
2021/09/16 01:36:59;;;;;;;;;5.50;5.50;;;;;24.47;50.10;101181.84;5079824;28;45285;-44
2021/09/16 01:39:25;;;;;;;;;7.00;7.00;;;;;24.47;49.98;101179.19;5079868;28;45442;-48
2021/09/16 01:41:51;;;;;;;;;7.00;7.00;;;;;24.46;49.96;101181.00;5079973;28;45501;-44
2021/09/16 01:44:16;;;;;;;;;8.75;7.75;;;;;24.46;49.59;101181.00;5079462;28;46196;-45
2021/09/16 01:46:43;;;;;;;;;8.25;7.00;;;;;24.48;49.66;101188.84;5079443;28;45377;-52
2021/09/16 01:49:08;;;;;;;;;7.50;6.00;;;;;24.46;49.64;101178.38;5079527;28;45384;-49
2021/09/16 01:51:34;;;;;;;;;7.50;7.50;;;;;24.47;50.00;101193.31;5080007;28;45576;-48
2021/09/16 01:54:01;;;;;;;;;8.00;7.00;;;;;24.47;49.78;101192.44;5079167;28;48038;-44
2021/09/16 01:56:26;;;;;;;;;7.75;7.75;;;;;24.47;49.99;101187.16;5079447;28;45773;-47
2021/09/16 01:58:52;;;;;;;;;7.25;7.00;;;;;24.44;49.92;101184.69;5079482;28;45837;-44
2021/09/16 02:01:18;;;;;;;;;8.25;8.25;;;;;24.47;49.84;101193.31;5079112;28;45571;-44
2021/09/16 02:03:43;;;;;;;;;8.00;7.75;;;;;24.46;49.53;101190.75;5079319;28;45378;-44
2021/09/16 02:06:09;;;;;;;;;5.00;5.00;;;;;24.46;49.97;101196.03;5079210;28;45455;-47
2021/09/16 02:08:34;;;;;;;;;5.75;5.75;;;;;24.46;49.75;101201.34;5079683;28;45473;-46
2021/09/16 02:10:59;;;;;;;;;7.75;6.50;;;;;24.46;49.66;101202.22;5079372;28;45540;-45
2021/09/16 02:13:26;;;;;;;;;7.00;6.00;;;;;24.46;49.77;101198.69;5078971;28;46467;-45
2021/09/16 02:15:51;;;;;;;;;7.50;6.00;;;;;24.46;49.66;101201.34;5078951;28;45375;-46
2021/09/16 02:18:17;;;;;;;;;6.25;6.25;;;;;24.46;49.47;101201.34;5079231;28;45327;-46
2021/09/16 02:20:42;;;;;;;;;6.00;6.00;;;;;24.45;50.06;101200.50;5079306;28;45253;-44
2021/09/16 02:23:08;;;;;;;;;6.00;6.00;;;;;24.45;50.00;101202.28;5078591;28;45337;-44
2021/09/16 02:25:33;;;;;;;;;5.75;5.00;;;;;24.45;49.49;101202.28;5079112;28;45317;-45
2021/09/16 02:27:58;;;;;;;;;9.25;6.75;;;;;24.44;49.81;101205.88;5078978;28;45461;-44
2021/09/16 02:30:24;;;;;;;;;8.00;7.25;;;;;24.45;49.54;101212.88;5079060;28;45283;-49
2021/09/16 02:32:49;;;;;;;;;8.25;8.25;;;;;24.44;49.55;101213.84;5078617;28;45450;-51
2021/09/16 02:35:15;;;;;;;;;7.00;6.50;;;;;24.43;49.81;101213.00;5078799;28;45259;-47
2021/09/16 02:37:40;;;;;;;;;5.50;5.50;;;;;24.44;49.76;101211.19;5078959;28;45335;-45
2021/09/16 02:40:07;;;;;;;;;7.75;7.00;;;;;24.42;49.79;101207.81;5079341;28;45539;-47
2021/09/16 02:42:33;;;;;;;;;8.00;8.00;;;;;24.43;49.89;101213.00;5078574;28;46703;-44
2021/09/16 02:44:58;;;;;;;;;8.00;7.00;;;;;24.43;49.92;101204.19;5078541;28;45318;-44
2021/09/16 02:47:23;;;;;;;;;8.33;7.00;;;;;24.42;49.79;101203.34;5078618;28;45407;-46
2021/09/16 02:49:49;;;;;;;;;7.75;7.75;;;;;24.42;49.38;101197.22;5078936;28;45605;-44
2021/09/16 02:52:14;;;;;;;;;5.00;5.00;;;;;24.42;49.92;101215.75;5060219;28;45816;-47
2021/09/16 02:54:40;;;;;;;;;6.00;6.00;;;;;24.42;49.35;101205.16;5078742;28;45865;-50
2021/09/16 02:57:05;;;;;;;;;7.00;7.00;;;;;24.42;50.03;101215.75;5078896;28;45391;-45
2021/09/16 02:59:30;;;;;;;;;5.00;5.00;;;;;24.42;49.70;101213.13;5078551;28;45620;-45
2021/09/16 03:01:55;;;;;;;;;7.50;7.50;;;;;24.41;49.61;101214.06;5078226;28;46641;-44
2021/09/16 03:04:21;;;;;;;;;6.25;6.25;;;;;24.39;50.04;101215.00;5078396;28;45421;-44
2021/09/16 03:06:46;;;;;;;;;7.50;6.75;;;;;24.40;49.82;101218.50;5078508;28;45323;-48
2021/09/16 03:09:12;;;;;;;;;7.00;7.00;;;;;24.42;49.60;101226.38;5078464;28;45786;-45
2021/09/16 03:11:37;;;;;;;;;6.50;6.50;;;;;24.41;49.30;101224.66;5078321;28;45300;-48
2021/09/16 03:14:03;;;;;;;;;5.75;5.75;;;;;24.41;49.83;101224.66;5078229;28;45245;-49
2021/09/16 03:16:28;;;;;;;;;5.75;5.00;;;;;24.41;49.35;101222.00;5078284;28;45399;-49
2021/09/16 03:18:53;;;;;;;;;8.75;8.25;;;;;24.39;49.08;101216.78;5078425;28;45351;-44
2021/09/16 03:21:19;;;;;;;;;6.00;6.00;;;;;24.40;49.39;101226.44;5078072;28;45573;-48
2021/09/16 03:23:44;;;;;;;;;6.50;6.50;;;;;24.39;49.69;101222.97;5078161;28;45330;-49
2021/09/16 03:26:10;;;;;;;;;4.00;4.00;;;;;24.39;49.70;101222.09;5078506;28;45315;-44
2021/09/16 03:28:38;;;;;;;;;6.00;6.00;;;;;24.36;49.72;101222.31;5078120;28;45280;-45
2021/09/16 03:31:05;;;;;;;;;7.50;7.00;;;;;24.37;49.50;101229.28;5077776;28;46990;-47
2021/09/16 03:33:30;;;;;;;;;7.00;6.25;;;;;24.37;49.70;101230.16;5059677;28;45556;-44
2021/09/16 03:35:55;;;;;;;;;7.00;7.00;;;;;24.38;49.27;101231.00;5076882;28;45352;-49
2021/09/16 03:38:21;;;;;;;;;7.50;6.25;;;;;24.36;49.80;101223.16;5078082;28;45370;-49
2021/09/16 03:40:46;;;;;;;;;6.75;6.50;;;;;24.36;49.44;101231.09;5077708;28;45349;-45
2021/09/16 03:43:11;;;;;;;;;8.50;6.00;;;;;24.34;49.00;101216.25;5059722;28;45908;-45
2021/09/16 03:45:37;;;;;;;;;6.00;5.00;;;;;24.36;49.48;101220.50;5076704;28;45310;-44
2021/09/16 03:48:02;;;;;;;;;6.00;5.25;;;;;24.37;49.08;101229.28;5077974;28;45326;-52
2021/09/16 03:50:28;;;;;;;;;6.00;6.00;;;;;24.36;49.54;101231.09;5077587;28;46218;-44
2021/09/16 03:52:53;;;;;;;;;7.50;7.50;;;;;24.35;49.68;101232.03;5077659;28;45166;-45
2021/09/16 03:55:18;;;;;;;;;6.75;6.00;;;;;24.35;49.10;101228.56;5077740;28;45233;-44
2021/09/16 03:57:44;;;;;;;;;7.75;6.25;;;;;24.35;49.41;101231.22;5077546;28;45312;-52
2021/09/16 04:00:10;;;;;;;;;7.50;5.25;;;;;24.35;49.16;101232.03;5077545;28;46148;-48
2021/09/16 04:02:36;;;;;;;;;9.00;7.75;;;;;24.35;49.35;101232.03;5077427;28;45879;-50
2021/09/16 04:05:02;;;;;;;;;10.00;9.25;;;;;24.30;48.52;101228.88;5077477;28;45442;-43
2021/09/16 04:07:27;;;;;;;;;10.00;10.00;;;;;24.21;48.32;101235.59;5077518;28;45360;-45
2021/09/16 04:09:52;;;;;;;;;9.50;9.50;;;;;24.11;48.56;101239.78;5077086;28;46313;-48
2021/09/16 04:12:18;;;;;;;;;11.00;10.75;;;;;24.01;48.77;101243.97;5077258;28;45403;-47
2021/09/16 04:14:43;;;;;;;;;7.25;7.25;;;;;23.92;48.96;101240.91;5077668;28;45408;-45
2021/09/16 04:17:08;;;;;;;;;7.25;7.25;;;;;23.84;49.05;101242.38;5077506;28;45335;-51
2021/09/16 04:19:34;;;;;;;;;8.25;6.50;;;;;23.77;49.03;101248.03;5077150;28;46151;-44
2021/09/16 04:21:59;;;;;;;;;7.50;7.50;;;;;23.72;49.10;101250.13;5077202;28;45310;-44
2021/09/16 04:24:24;;;;;;;;;8.75;7.75;;;;;23.66;49.16;101250.50;5077248;28;45398;-43
2021/09/16 04:26:50;;;;;;;;;6.75;6.00;;;;;23.61;49.12;101255.25;5077377;28;45410;-46
2021/09/16 04:29:15;;;;;;;;;6.00;4.75;;;;;23.57;48.56;101267.81;5058498;28;47009;-44
2021/09/16 04:31:41;;;;;;;;;7.50;7.50;;;;;23.51;49.02;101254.97;5093069;27;45349;-45
2021/09/16 04:34:07;;;;;;;;;9.00;8.00;;;;;23.46;49.04;101257.88;5077146;28;45380;-46
2021/09/16 04:36:32;;;;;;;;;8.50;7.25;;;;;23.43;49.01;101257.22;5077261;28;45235;-52
2021/09/16 04:38:58;;;;;;;;;7.50;6.75;;;;;23.37;49.23;101253.16;5076840;28;45601;-45
2021/09/16 04:41:23;;;;;;;;;10.50;8.75;;;;;23.33;49.15;101253.44;5076828;28;45319;-49
2021/09/16 04:43:48;;;;;;;;;7.00;7.00;;;;;23.28;48.99;101259.03;5076936;28;45506;-44
2021/09/16 04:46:14;;;;;;;;;9.00;7.00;;;;;23.23;49.16;101254.00;5077176;28;45220;-51
2021/09/16 04:48:40;;;;;;;;;8.50;5.50;;;;;23.20;48.99;101256.81;5076480;28;46199;-57
2021/09/16 04:51:05;;;;;;;;;7.25;7.00;;;;;23.15;49.10;101245.66;5076763;28;45411;-54
2021/09/16 04:53:31;;;;;;;;;7.00;7.00;;;;;23.12;49.15;101245.84;5076803;28;45326;-56
2021/09/16 04:55:56;;;;;;;;;6.50;6.50;;;;;23.12;49.29;101251.13;5076953;28;45305;-56
2021/09/16 04:58:21;;;;;;;;;8.75;7.50;;;;;23.10;49.43;101253.00;5076524;28;46487;-52
2021/09/16 05:00:47;;;;;;;;;8.50;6.25;;;;;23.08;49.13;101260.16;5076398;28;45405;-51
2021/09/16 05:03:12;;;;;;;;;9.25;9.25;;;;;23.05;49.25;101257.69;5077149;28;45331;-44
2021/09/16 05:05:38;;;;;;;;;8.00;7.00;;;;;23.03;49.31;101263.09;5076906;28;45559;-44
2021/09/16 05:08:03;;;;;;;;;10.50;7.75;;;;;23.00;49.42;101261.50;5076350;28;46345;-50
2021/09/16 05:10:29;;;;;;;;;5.25;5.00;;;;;22.98;49.60;101259.88;5075210;28;45399;-48
2021/09/16 05:12:54;;;;;;;;;7.75;7.25;;;;;22.96;49.58;101269.69;5076548;28;45335;-45
2021/09/16 05:15:20;;;;;;;;;6.25;6.25;;;;;22.94;49.47;101268.94;5076638;28;45464;-48
2021/09/16 05:17:45;;;;;;;;;8.00;8.00;;;;;22.91;49.56;101267.31;5076659;28;46205;-45
2021/09/16 05:20:11;;;;;;;;;11.00;7.75;;;;;22.90;49.51;101262.09;5076209;28;45408;-47
2021/09/16 05:22:36;;;;;;;;;10.25;9.25;;;;;22.87;49.56;101263.16;5076416;28;45316;-49
2021/09/16 05:25:02;;;;;;;;;5.25;5.25;;;;;22.85;49.71;101265.91;5076719;28;45264;-50
2021/09/16 05:27:28;;;;;;;;;7.25;6.75;;;;;22.83;49.85;101269.53;5076124;28;45409;-44
2021/09/16 05:29:53;;;;;;;;;5.75;5.75;;;;;22.79;49.89;101266.22;5076176;28;45186;-53
2021/09/16 05:32:18;;;;;;;;;7.50;7.50;;;;;22.78;49.65;101269.81;5076503;28;45328;-45
2021/09/16 05:34:44;;;;;;;;;6.75;6.00;;;;;22.77;50.26;101268.09;5076820;28;45514;-50
2021/09/16 05:37:09;;;;;;;;;6.50;5.50;;;;;22.76;50.11;101269.06;5076144;28;45303;-49
2021/09/16 05:39:35;;;;;;;;;5.50;5.50;;;;;22.75;49.81;101270.00;5076096;28;45198;-45
2021/09/16 05:42:00;;;;;;;;;7.75;6.75;;;;;22.73;49.85;101271.03;5076263;28;45747;-51
2021/09/16 05:44:25;;;;;;;;;6.25;5.75;;;;;22.72;50.02;101270.19;5076440;28;45285;-49
2021/09/16 05:46:51;;;;;;;;;6.00;5.00;;;;;22.70;50.04;101266.78;5076001;28;45344;-48
2021/09/16 05:49:16;;;;;;;;;5.25;5.25;;;;;22.69;50.20;101273.00;5076252;28;45304;-54
2021/09/16 05:51:41;;;;;;;;;8.00;6.25;;;;;22.68;49.96;101269.50;5076131;28;45374;-44
2021/09/16 05:54:07;;;;;;;;;6.75;6.75;;;;;22.69;49.91;101270.34;5076245;28;45622;-44
2021/09/16 05:56:32;;;;;;;;;5.75;5.25;;;;;22.69;50.03;101273.00;5075821;28;46187;-44
2021/09/16 05:58:58;;;;;;;;;9.00;7.25;;;;;22.68;50.10;101285.38;5077625;28;45919;-44
2021/09/16 06:01:24;;;;;;;;;7.75;6.50;;;;;22.68;50.08;101287.16;5079359;28;45728;-47
2021/09/16 06:03:49;;;;;;;;;6.25;6.25;;;;;22.67;50.23;101293.38;5079753;28;45334;-54
2021/09/16 06:06:15;;;;;;;;;6.50;5.00;;;;;22.66;49.91;101283.72;5079390;28;45728;-48
2021/09/16 06:08:41;;;;;;;;;5.25;4.50;;;;;22.65;50.11;101292.63;5079048;28;45443;-53
2021/09/16 06:11:07;;;;;;;;;6.25;6.25;;;;;22.64;50.10;101306.78;5079318;28;45365;-47
2021/09/16 06:13:32;;;;;;;;;7.00;5.00;;;;;22.62;49.85;101301.56;5079354;28;45298;-48
2021/09/16 06:15:58;;;;;;;;;5.00;5.00;;;;;22.60;49.75;101307.88;5078997;28;46410;-49
2021/09/16 06:18:23;;;;;;;;;5.50;4.50;;;;;22.59;49.98;101306.16;5079061;28;45300;-44
2021/09/16 06:20:49;;;;;;;;;4.75;4.75;;;;;22.57;50.13;101308.91;5079411;28;45296;-50
2021/09/16 06:23:16;;;;;;;;;8.50;6.00;;;;;22.53;49.98;101310.88;5079716;28;45491;-45
2021/09/16 06:25:41;;;;;;;;;6.00;6.00;;;;;22.53;49.97;101318.78;5078930;28;47008;-46
2021/09/16 06:28:07;;;;;;;;;6.50;6.50;;;;;22.51;50.12;101315.38;5078816;28;45332;-47
2021/09/16 06:30:32;;;;;;;;;4.75;4.75;;;;;22.53;49.94;101312.66;5079110;28;45371;-47
2021/09/16 06:32:58;;;;;;;;;7.00;6.00;;;;;22.51;49.98;101315.38;5079134;28;45601;-46
2021/09/16 06:35:23;;;;;;;;;4.75;4.75;;;;;22.51;50.11;101315.38;5078722;28;45327;-44
2021/09/16 06:37:49;;;;;;;;;7.75;5.00;;;;;22.49;50.15;101313.78;5078959;28;45249;-44
2021/09/16 06:40:14;;;;;;;;;4.75;4.00;;;;;22.52;50.12;101330.31;5078792;28;45373;-54
2021/09/16 06:42:40;;;;;;;;;7.00;6.00;;;;;22.52;49.86;101332.06;5078850;28;45356;-53
2021/09/16 06:45:07;;;;;;;;;7.75;6.00;;;;;22.51;49.91;101336.53;5078606;28;46378;-56
2021/09/16 06:47:32;;;;;;;;;6.25;6.25;;;;;22.51;50.14;101336.53;5078663;28;45223;-55
2021/09/16 06:49:58;;;;;;;;;7.00;6.25;;;;;22.51;50.09;101339.16;5078621;28;45290;-57
2021/09/16 06:52:23;;;;;;;;;6.00;5.00;;;;;22.52;50.11;101340.88;5060647;28;45592;-49
2021/09/16 06:54:50;;;;;;;;;5.75;5.00;;;;;22.52;49.96;101332.94;5078742;28;45482;-51
2021/09/16 06:57:16;;;;;;;;;6.25;6.00;;;;;22.53;49.75;101339.06;5078528;28;45214;-44
2021/09/16 06:59:41;;;;;;;;;5.25;5.25;;;;;22.56;49.99;101328.34;5078536;28;45493;-46
2021/09/16 07:02:07;;;;;;;;;4.75;4.75;;;;;22.58;49.77;101330.88;5078909;28;45513;-50
2021/09/16 07:04:32;;;;;;;;;4.25;4.25;;;;;22.61;49.87;101336.00;5078343;28;45314;-44
2021/09/16 07:07:04;;;;;;;;;6.00;5.00;;;;;22.63;49.62;101331.47;5078301;28;45300;-44
2021/09/16 07:09:31;;;;;;;;;8.00;6.50;;;;;22.67;49.51;101330.34;5078178;28;45244;-46
2021/09/16 07:11:57;;;;;;;;;8.75;5.50;;;;;22.67;49.50;101330.34;5060534;28;45366;-45
2021/09/16 07:14:24;;;;;;;;;9.50;5.25;;;;;22.69;49.52;101333.75;5078368;28;45456;-44
2021/09/16 07:16:50;;;;;;;;;2.25;2.25;;;;;22.71;49.48;101329.25;5078354;28;45872;-43
2021/09/16 07:19:15;;;;;;;;;5.75;5.00;;;;;22.75;49.46;101328.16;5078238;28;45446;-43
2021/09/16 07:21:41;;;;;;;;;4.00;3.00;;;;;22.77;49.33;101330.69;5078439;28;45427;-43
2021/09/16 07:24:08;;;;;;;;;7.50;4.00;;;;;22.83;49.20;101336.47;5078037;28;46029;-45
2021/09/16 07:26:34;;;;;;;;;4.25;4.25;;;;;22.92;49.53;101336.88;5078074;28;45338;-48
2021/09/16 07:28:59;;;;;;;;;5.50;3.50;;;;;22.97;49.10;101335.69;5078069;28;45323;-43
2021/09/16 07:31:25;;;;;;;;;3.00;3.00;;;;;23.03;49.29;101341.56;5078367;28;45335;-49
2021/09/16 07:33:50;;;;;;;;;5.00;3.75;;;;;23.08;48.95;101339.50;5078149;28;46055;-52
2021/09/16 07:36:16;;;;;;;;;4.00;4.00;;;;;23.11;49.13;101334.88;5077922;28;45178;-48
2021/09/16 07:38:41;;;;;;;;;2.25;2.25;;;;;23.16;48.63;101339.88;5078009;28;45418;-48
2021/09/16 07:41:06;;;;;;;;;4.00;3.75;;;;;23.19;48.49;101337.09;5077943;28;45498;-47
2021/09/16 07:43:32;;;;;;;;;3.00;3.00;;;;;23.25;48.55;101342.03;5077752;28;46766;-51
2021/09/16 07:45:57;;;;;;;;;2.00;2.00;;;;;23.27;48.49;101341.94;5059149;28;45961;-44
2021/09/16 07:48:23;;;;;;;;;5.00;4.00;;;;;23.31;48.31;101346.97;5047587;28;45483;-45
2021/09/16 07:50:50;;;;;;;;;3.50;3.25;;;;;23.36;47.72;101351.97;5077687;28;45308;-45
2021/09/16 07:53:15;;;;;;;;;4.50;2.75;;;;;23.35;47.99;101341.50;5076916;28;46923;-45
2021/09/16 07:55:41;;;;;;;;;6.00;4.00;;;;;23.41;48.09;101355.22;5077344;28;45367;-46
2021/09/16 07:58:06;;;;;;;;;3.00;3.00;;;;;23.42;47.46;101353.41;5076402;28;45348;-45
2021/09/16 08:00:32;;;;;;;;;4.50;3.25;;;;;23.46;47.28;101361.06;5076911;28;45640;-50
2021/09/16 08:02:58;;;;;;;;;3.00;3.00;;;;;23.49;47.43;101361.81;5077304;28;45322;-48
2021/09/16 08:05:23;;;;;;;;;3.00;2.50;;;;;23.51;47.56;101373.16;5077692;28;45251;-48
2021/09/16 08:07:50;;;;;;;;;2.25;2.25;;;;;23.52;47.74;101367.78;5077195;28;45546;-51
2021/09/16 08:10:15;;;;;;;;;4.00;3.00;;;;;23.55;47.39;101374.66;5059101;28;45529;-48
2021/09/16 08:12:41;;;;;;;;;2.75;2.75;;;;;23.57;47.02;101367.50;5076901;28;46114;-47
2021/09/16 08:15:07;;;;;;;;;5.00;3.00;;;;;23.59;46.65;101368.25;5077066;28;45240;-53
2021/09/16 08:17:33;;;;;;;;;3.75;2.75;;;;;23.62;46.51;101365.44;5077384;28;45469;-49
2021/09/16 08:19:58;;;;;;;;;4.00;2.00;;;;;23.62;46.63;101363.63;5077349;28;45351;-51
2021/09/16 08:22:24;;;;;;;;;3.75;3.50;;;;;23.64;46.31;101363.56;5058489;28;45452;-45
2021/09/16 08:24:49;;;;;;;;;3.50;2.75;;;;;23.64;46.11;101363.56;5076919;28;45369;-53
2021/09/16 08:27:15;;;;;;;;;3.50;3.00;;;;;23.65;46.46;101365.25;5077149;28;45418;-50
2021/09/16 08:29:40;;;;;;;;;4.50;3.50;;;;;23.64;45.90;101363.56;5077206;28;45568;-54
2021/09/16 08:32:06;;;;;;;;;4.00;4.00;;;;;23.66;46.22;101366.94;5075561;28;45505;-56
2021/09/16 08:34:32;;;;;;;;;3.75;3.00;;;;;23.67;46.31;101362.50;5076877;28;45711;-57
2021/09/16 08:36:58;;;;;;;;;3.25;3.25;;;;;23.66;46.02;101361.66;5077170;28;45309;-55
2021/09/16 08:39:23;;;;;;;;;3.75;3.00;;;;;23.68;46.25;101361.56;5077490;28;45254;-55
2021/09/16 08:41:49;;;;;;;;;4.00;2.25;;;;;23.69;45.66;101371.22;5076914;28;46136;-55
2021/09/16 08:44:16;;;;;;;;;3.00;3.00;;;;;23.68;45.97;101365.06;5076973;28;45242;-46
2021/09/16 08:46:42;;;;;;;;;3.00;3.00;;;;;23.67;45.07;101368.66;5077034;28;45462;-50
2021/09/16 08:49:07;;;;;;;;;3.00;3.00;;;;;23.65;44.91;101361.75;5058892;28;45592;-51
2021/09/16 08:51:33;;;;;;;;;1.50;1.50;;;;;23.65;45.43;101369.69;5076724;28;46225;-49
2021/09/16 08:54:01;;;;;;;;;2.75;2.00;;;;;23.66;45.13;101366.09;5076812;28;45440;-48
2021/09/16 08:56:27;;;;;;;;;3.25;2.00;;;;;23.64;45.40;101360.91;5058165;28;45462;-51
2021/09/16 08:58:58;;;;;;;;;1.75;1.75;;;;;23.71;45.05;101371.94;5055160;28;45365;-52
2021/09/16 09:01:23;;;;;;;;;3.00;2.00;;;;;23.72;44.72;101371.88;5076297;28;46228;-44
2021/09/16 09:03:49;;;;;;;;;2.00;2.00;;;;;23.74;44.69;101375.28;5076566;27;45364;-47
2021/09/16 09:06:36;;;;;;;;;2.00;2.00;;;;;23.77;44.67;101377.72;5076255;27;45347;-50
2021/09/16 09:09:05;;;;;;;;;5.00;2.00;;;;;23.80;44.91;101368.78;5076698;27;45365;-49
2021/09/16 09:11:30;;;;;;;;;3.50;1.75;;;;;23.82;44.58;101377.44;5076155;28;45540;-47
2021/09/16 09:13:57;;;;;;;;;2.50;2.50;;;;;23.80;44.50;101368.78;5076546;28;45336;-50
2021/09/16 09:16:34;;;;;;;;;6.00;2.00;;;;;23.84;44.37;101383.50;5076463;27;45390;-49
2021/09/16 09:18:59;;;;;;;;;3.00;3.00;;;;;23.84;44.33;101383.50;5076264;27;45324;-48
2021/09/16 09:21:35;;;;;;;;;3.00;1.25;;;;;23.87;44.39;101387.75;5076504;27;46553;-45
2021/09/16 09:24:01;;;;;;;;;3.75;2.75;;;;;23.89;44.58;101384.09;5091433;27;45447;-49
2021/09/16 09:26:35;;;;;;;;;2.00;2.00;;;;;23.91;44.30;101386.63;5076583;27;45469;-48
2021/09/16 09:29:06;;;;;;;;;2.00;2.00;;;;;23.92;44.46;101391.81;5076494;28;45363;-48
2021/09/16 09:31:32;;;;;;;;;2.00;2.00;;;;;23.92;44.09;101385.69;5076186;27;45518;-48
2021/09/16 09:33:58;;;;;;;;;3.00;3.00;;;;;23.92;44.33;101386.53;5094025;27;45808;-54
2021/09/16 09:36:23;;;;;;;;;4.00;2.75;;;;;23.93;44.23;101384.75;5080188;27;45386;-50
2021/09/16 09:38:55;;;;;;;;;3.00;3.00;;;;;23.91;43.14;101381.34;5080038;27;45381;-49
2021/09/16 09:41:27;;;;;;;;;4.00;3.00;;;;;23.88;43.58;101384.16;5079587;27;45467;-44
2021/09/16 09:44:12;;;;;;;;;3.25;3.25;;;;;23.85;43.09;101387.03;5079685;27;45225;-47
2021/09/16 09:46:39;;;;;;;;;3.75;2.25;;;;;23.83;43.36;101383.59;5079789;28;45310;-46
2021/09/16 09:49:08;;;;;;;;;3.00;3.00;;;;;23.81;43.46;101382.84;5079886;27;45444;-51
2021/09/16 09:51:51;;;;;;;;;3.25;3.25;;;;;23.78;43.02;101381.25;5095256;27;46685;-50
2021/09/16 09:54:19;;;;;;;;;4.00;4.00;;;;;23.76;42.69;101383.97;5079465;27;45284;-47
2021/09/16 09:57:19;;;;;;;;;3.00;3.00;;;;;23.74;43.04;101388.53;5079656;28;45878;-48
2021/09/16 10:00:08;;;;;;;;;5.00;3.75;;;;;23.74;43.24;101390.31;5057137;27;45508;-52
2021/09/16 10:02:54;;;;;;;;;5.00;3.25;;;;;23.71;43.29;101386.06;5079261;27;47428;-47
2021/09/16 10:05:38;;;;;;;;;4.75;4.75;;;;;23.69;43.12;101379.16;5079146;27;45412;-46
2021/09/16 10:08:06;;;;;;;;;4.00;4.00;;;;;23.70;43.16;101378.22;5079520;28;45328;-45
2021/09/16 10:10:44;;;;;;;;;6.00;5.00;;;;;23.68;42.74;101378.28;5079635;28;45617;-50
2021/09/16 10:13:20;;;;;;;;;6.00;4.50;;;;;23.68;43.13;101370.34;5079223;27;46636;-49
2021/09/16 10:15:51;;;;;;;;;7.00;5.00;;;;;23.68;42.95;101370.34;5079120;27;45331;-49
2021/09/16 10:18:17;;;;;;;;;3.25;3.25;;;;;23.68;43.02;101375.66;5079346;27;45315;-52
2021/09/16 10:20:45;;;;;;;;;3.00;3.00;;;;;23.68;43.11;101380.94;5079358;28;45213;-51
2021/09/16 10:23:11;;;;;;;;;5.25;4.00;;;;;23.67;43.02;101368.66;5079105;27;47066;-55
2021/09/16 10:25:48;;;;;;;;;4.50;3.75;;;;;23.66;43.26;101372.22;5078955;27;45323;-47
2021/09/16 10:28:15;;;;;;;;;5.00;5.00;;;;;23.66;42.30;101372.22;5079121;28;45470;-55
2021/09/16 10:30:44;;;;;;;;;4.00;4.00;;;;;23.67;42.48;101367.81;5079286;27;45575;-50
2021/09/16 10:33:14;;;;;;;;;6.00;4.25;;;;;23.66;42.69;101364.28;5079006;27;45407;-56
2021/09/16 10:36:04;;;;;;;;;4.00;3.00;;;;;23.67;42.62;101365.16;5078804;27;45284;-48
2021/09/16 10:38:42;;;;;;;;;3.25;3.25;;;;;23.67;42.61;101362.50;5079297;27;45256;-51
2021/09/16 10:41:15;;;;;;;;;5.00;4.00;;;;;23.67;42.33;101365.16;5079079;27;45643;-49
2021/09/16 10:43:43;;;;;;;;;5.50;5.50;;;;;23.67;42.22;101362.50;5078432;27;46495;-49
2021/09/16 10:46:35;;;;;;;;;4.00;4.00;;;;;23.65;42.25;101362.59;5078488;27;45844;-49
2021/09/16 10:49:19;;;;;;;;;3.75;3.75;;;;;23.65;42.61;101362.59;5079017;28;45361;-52
2021/09/16 10:51:47;;;;;;;;;5.25;4.00;;;;;23.66;42.72;101361.66;5078990;28;45338;-49
2021/09/16 10:54:24;;;;;;;;;4.75;4.75;;;;;23.66;42.50;101359.00;5078555;28;45587;-46
2021/09/16 10:57:12;;;;;;;;;5.00;5.00;;;;;23.67;42.62;101357.22;5078656;27;45761;-45
2021/09/16 10:59:52;;;;;;;;;5.75;5.75;;;;;23.66;42.46;101353.72;5078716;28;45577;-51
2021/09/16 11:02:21;;;;;;;;;5.00;4.00;;;;;23.67;42.31;101352.78;5094454;27;45338;-55
2021/09/16 11:04:59;;;;;;;;;4.00;3.00;;;;;23.68;42.35;101348.34;5078509;27;45667;-51
2021/09/16 11:07:30;;;;;;;;;5.50;3.75;;;;;23.68;42.47;101356.28;5078550;27;45815;-52
2021/09/16 11:09:55;;;;;;;;;5.00;5.00;;;;;23.69;42.36;101350.06;5078447;28;45391;-53
2021/09/16 11:12:31;;;;;;;;;4.25;4.25;;;;;23.70;42.12;101357.88;5078587;27;45302;-48
2021/09/16 11:14:57;;;;;;;;;5.00;4.00;;;;;23.70;42.15;101352.59;5078174;27;46260;-49
2021/09/16 11:17:27;;;;;;;;;4.00;4.00;;;;;23.73;42.25;101356.84;5093993;27;45379;-49
2021/09/16 11:19:53;;;;;;;;;3.00;3.00;;;;;23.73;42.20;101354.19;5076899;28;45437;-48
2021/09/16 11:22:23;;;;;;;;;4.25;4.00;;;;;23.74;42.24;101356.75;5078630;27;45315;-49
2021/09/16 11:24:50;;;;;;;;;3.00;3.00;;;;;23.75;42.39;101358.47;5093640;27;46277;-49